Altoona, Wisconsin
Current Conditions -  °F | °C
As of 10:56 AM on Friday 28 Nov 2014 (Local Time) from KEAU Reporting Station
Overcast Overcast  
Wind Chill: -16°   Ceiling: 3100
Heat Index: -9°   Visibility: 10mi
Dew Point: -12°   Wind: 10mph
Humidity: 77%   Direction: 150°SSE
Pressure: 30.01"   Gusts: NA
Location:  44.81°N, 91.43°W
Report Text: KEAU 281656Z 15009KT 10SM BKN031 OVC065 M09/M12 A3001 RMK AO2 SLP181 T10891122
Loading
Personal Weather Stations






























Interactive Weather Map New forecast layout! Learn more

10-Day Weather Forecast

Advertisements
Track Severe Weather on mobile